Yahata Maru — JL6477 — position and weather

sailwx.info

Track history (hours):
 
Tides and Currents Weather Stations Pressure Air Temp Water Temp Dewpoint Dewpoint Depression Visibility Wind Speed Wind Dir Waves Ship Positions

Yahata Maru

Last reported at 2015-Feb-28 03:05 UTC. Time now 2015-Mar-02 20:31 UTC.
Position N 34°34' E 134°50'.

Length 149 m; draft 4.7 m.

Type: Other ship. MMSI: 431400594.

Date/timePositionNaut miles runAvg speedWind from/ knotsBaromVisibWave heightAir tempDewpointWater temp
2015-Feb-28 03:05N 34°34' E 134°50'5 8.8
2015-Feb-28 02:32N 34°36' E 134°55'8 7.7
2015-Feb-28 01:33N 34°36' E 135°04'9 9.5
2015-Feb-28 00:33N 34°37' E 135°16'7 7.5
2015-Feb-27 23:33N 34°43' E 135°21'0 0.1
2015-Feb-27 22:28N 34°43' E 135°21'0 0.0
2015-Feb-27 21:28N 34°43' E 135°21'4 4.0
2015-Feb-27 20:33N 34°40' E 135°22'5 5.2
2015-Feb-27 19:33N 34°35' E 135°25'0 0.2
2015-Feb-27 18:32N 34°35' E 135°26'0 0.0
2015-Feb-27 17:32N 34°35' E 135°26'0 0.0
2015-Feb-27 16:32N 34°35' E 135°26'2 1.7
2015-Feb-27 15:33N 34°36' E 135°24'9 9.0
2015-Feb-27 14:33N 34°31' E 135°15'9 9.0
2015-Feb-27 13:33N 34°25' E 135°07'9 8.6
2015-Feb-27 12:32N 34°18' E 135°00'7 7.1
2015-Feb-27 11:33N 34°11' E 134°60'8 7.9
2015-Feb-27 10:33N 34°03' E 135°01'226 5.4
2015-Feb-25 16:27N 34°60' E 139°27'7 7.9
2015-Feb-25 15:33N 35°03' E 139°34'10 9.8
2015-Feb-25 14:33N 35°09' E 139°44'9 8.8
2015-Feb-25 13:33N 35°18' E 139°44'9 9.4
2015-Feb-25 12:33N 35°27' E 139°43'1 0.5
2015-Feb-25 11:33N 35°28' E 139°43'0 0.0
2015-Feb-25 10:33N 35°28' E 139°43'0 0.0
2015-Feb-25 09:33N 35°28' E 139°43'0 0.1
2015-Feb-25 08:33N 35°28' E 139°43'8 7.9
2015-Feb-25 07:30N 35°30' E 139°52'7 0.3
2015-Feb-24 09:32N 35°33' E 140°00'9 9.2
2015-Feb-24 08:33N 35°28' E 139°51'9 9.1
2015-Feb-24 07:33N 35°23' E 139°42'3 2.5
2015-Feb-24 06:31N 35°23' E 139°38'0 0.0
2015-Feb-24 05:31N 35°23' E 139°38'0 0.0
2015-Feb-24 04:31N 35°23' E 139°38'1 1.0
2015-Feb-24 03:33N 35°24' E 139°39'7 7.5
2015-Feb-24 02:33N 35°18' E 139°45'7 7.3
2015-Feb-24 01:32N 35°10' E 139°46'  
Track history (hours):
 
Tides and Currents Weather Stations Pressure Air Temp Water Temp Dewpoint Dewpoint Depression Visibility Wind Speed Wind Dir Waves Ship Positions

Yahata Maru

Last reported at 2015-Feb-28 03:05 UTC. Time now 2015-Mar-02 20:31 UTC.
Position N 34°34' E 134°50'.

Length 149 m; draft 4.7 m.

Type: Other ship. MMSI: 431400594.

Date/timePositionNaut miles runAvg speedWind from/ knotsBaromVisibWave heightAir tempDewpointWater temp
2015-Feb-28 03:05N 34°34' E 134°50'5 8.8
2015-Feb-28 02:32N 34°36' E 134°55'8 7.7
2015-Feb-28 01:33N 34°36' E 135°04'9 9.5
2015-Feb-28 00:33N 34°37' E 135°16'7 7.5
2015-Feb-27 23:33N 34°43' E 135°21'0 0.1
2015-Feb-27 22:28N 34°43' E 135°21'0 0.0
2015-Feb-27 21:28N 34°43' E 135°21'4 4.0
2015-Feb-27 20:33N 34°40' E 135°22'5 5.2
2015-Feb-27 19:33N 34°35' E 135°25'0 0.2
2015-Feb-27 18:32N 34°35' E 135°26'0 0.0
2015-Feb-27 17:32N 34°35' E 135°26'0 0.0
2015-Feb-27 16:32N 34°35' E 135°26'2 1.7
2015-Feb-27 15:33N 34°36' E 135°24'9 9.0
2015-Feb-27 14:33N 34°31' E 135°15'9 9.0
2015-Feb-27 13:33N 34°25' E 135°07'9 8.6
2015-Feb-27 12:32N 34°18' E 135°00'7 7.1
2015-Feb-27 11:33N 34°11' E 134°60'8 7.9
2015-Feb-27 10:33N 34°03' E 135°01'226 5.4
2015-Feb-25 16:27N 34°60' E 139°27'7 7.9
2015-Feb-25 15:33N 35°03' E 139°34'10 9.8
2015-Feb-25 14:33N 35°09' E 139°44'9 8.8
2015-Feb-25 13:33N 35°18' E 139°44'9 9.4
2015-Feb-25 12:33N 35°27' E 139°43'1 0.5
2015-Feb-25 11:33N 35°28' E 139°43'0 0.0
2015-Feb-25 10:33N 35°28' E 139°43'0 0.0
2015-Feb-25 09:33N 35°28' E 139°43'0 0.1
2015-Feb-25 08:33N 35°28' E 139°43'8 7.9
2015-Feb-25 07:30N 35°30' E 139°52'7 0.3
2015-Feb-24 09:32N 35°33' E 140°00'9 9.2
2015-Feb-24 08:33N 35°28' E 139°51'9 9.1
2015-Feb-24 07:33N 35°23' E 139°42'3 2.5
2015-Feb-24 06:31N 35°23' E 139°38'0 0.0
2015-Feb-24 05:31N 35°23' E 139°38'0 0.0
2015-Feb-24 04:31N 35°23' E 139°38'1 1.0
2015-Feb-24 03:33N 35°24' E 139°39'7 7.5
2015-Feb-24 02:33N 35°18' E 139°45'7 7.3
2015-Feb-24 01:32N 35°10' E 139°46'  

Dump ship's entire track history